sensor_id;sensor_type;location;lat;lon;timestamp;pressure;altitude;pressure_sealevel;temperature;humidity
75767;BME280;64378;55.596;13.014;2023-05-10T00:01:14;101464.00;;;20.84;33.74
75767;BME280;64378;55.596;13.014;2023-05-10T00:03:39;101454.97;;;20.83;33.94
75767;BME280;64378;55.596;13.014;2023-05-10T00:06:05;101457.44;;;20.85;33.64
75767;BME280;64378;55.596;13.014;2023-05-10T00:08:30;101455.78;;;20.84;33.74
75767;BME280;64378;55.596;13.014;2023-05-10T00:10:55;101451.38;;;20.83;33.83
75767;BME280;64378;55.596;13.014;2023-05-10T00:13:21;101448.91;;;20.81;33.81
75767;BME280;64378;55.596;13.014;2023-05-10T00:15:47;101441.47;;;20.82;34.32
75767;BME280;64378;55.596;13.014;2023-05-10T00:18:12;101440.66;;;20.81;34.04
75767;BME280;64378;55.596;13.014;2023-05-10T00:20:37;101445.88;;;20.83;34.00
75767;BME280;64378;55.596;13.014;2023-05-10T00:23:03;101445.06;;;20.82;34.20
75767;BME280;64378;55.596;13.014;2023-05-10T00:25:28;101433.00;;;20.83;34.35
75767;BME280;64378;55.596;13.014;2023-05-10T00:27:53;101432.16;;;20.83;34.01
75767;BME280;64378;55.596;13.014;2023-05-10T00:30:20;101434.91;;;20.83;34.13
75767;BME280;64378;55.596;13.014;2023-05-10T00:32:45;101430.50;;;20.82;34.19
75767;BME280;64378;55.596;13.014;2023-05-10T00:35:10;101428.63;;;20.82;33.95
75767;BME280;64378;55.596;13.014;2023-05-10T00:37:36;101419.53;;;20.82;34.37
75767;BME280;64378;55.596;13.014;2023-05-10T00:40:01;101417.63;;;20.82;34.54
75767;BME280;64378;55.596;13.014;2023-05-10T00:42:27;101407.47;;;20.83;34.41
75767;BME280;64378;55.596;13.014;2023-05-10T00:44:52;101416.56;;;20.83;34.38
75767;BME280;64378;55.596;13.014;2023-05-10T00:47:17;101414.31;;;20.80;34.40
75767;BME280;64378;55.596;13.014;2023-05-10T00:49:42;101415.13;;;20.81;34.94
75767;BME280;64378;55.596;13.014;2023-05-10T00:52:08;101412.38;;;20.81;34.72
75767;BME280;64378;55.596;13.014;2023-05-10T00:54:33;101407.75;;;20.81;34.60
75767;BME280;64378;55.596;13.014;2023-05-10T00:56:59;101402.25;;;20.81;34.63
75767;BME280;64378;55.596;13.014;2023-05-10T00:59:24;101405.25;;;20.80;34.32
75767;BME280;64378;55.596;13.014;2023-05-10T01:01:50;101402.50;;;20.80;34.63
75767;BME280;64378;55.596;13.014;2023-05-10T01:04:16;101390.91;;;20.78;34.27
75767;BME280;64378;55.596;13.014;2023-05-10T01:06:42;101395.59;;;20.77;34.25
75767;BME280;64378;55.596;13.014;2023-05-10T01:09:07;101395.31;;;20.79;34.56
75767;BME280;64378;55.596;13.014;2023-05-10T01:11:33;101402.50;;;20.80;34.41
75767;BME280;64378;55.596;13.014;2023-05-10T01:13:59;101393.19;;;20.81;34.02
75767;BME280;64378;55.596;13.014;2023-05-10T01:16:25;101390.72;;;20.79;34.44
75767;BME280;64378;55.596;13.014;2023-05-10T01:18:51;101397.25;;;20.78;34.30
75767;BME280;64378;55.596;13.014;2023-05-10T01:21:19;101392.56;;;20.79;34.68
75767;BME280;64378;55.596;13.014;2023-05-10T01:26:23;101381.41;;;20.80;34.42
75767;BME280;64378;55.596;13.014;2023-05-10T01:34:07;101385.44;;;20.78;34.57
75767;BME280;64378;55.596;13.014;2023-05-10T01:36:43;101390.09;;;20.77;34.43
75767;BME280;64378;55.596;13.014;2023-05-10T01:39:17;101377.47;;;20.76;34.59
75767;BME280;64378;55.596;13.014;2023-05-10T01:41:54;101380.22;;;20.76;34.72
75767;BME280;64378;55.596;13.014;2023-05-10T01:44:34;101381.03;;;20.77;34.77
75767;BME280;64378;55.596;13.014;2023-05-10T01:47:02;101384.63;;;20.77;34.33
75767;BME280;64378;55.596;13.014;2023-05-10T01:49:31;101370.91;;;20.77;34.69
75767;BME280;64378;55.596;13.014;2023-05-10T01:51:59;101379.13;;;20.77;34.40
75767;BME280;64378;55.596;13.014;2023-05-10T01:54:25;101379.13;;;20.77;34.50
75767;BME280;64378;55.596;13.014;2023-05-10T01:56:54;101370.91;;;20.77;34.71
75767;BME280;64378;55.596;13.014;2023-05-10T01:59:21;101373.66;;;20.77;34.50
75767;BME280;64378;55.596;13.014;2023-05-10T02:01:47;101374.72;;;20.76;34.53
75767;BME280;64378;55.596;13.014;2023-05-10T02:04:14;101372.50;;;20.73;34.43
75767;BME280;64378;55.596;13.014;2023-05-10T02:06:40;101366.44;;;20.72;34.30
75767;BME280;64378;55.596;13.014;2023-05-10T02:09:07;101357.38;;;20.71;34.62
75767;BME280;64378;55.596;13.014;2023-05-10T02:11:33;101368.34;;;20.71;34.30
75767;BME280;64378;55.596;13.014;2023-05-10T02:13:58;101365.84;;;20.70;34.58
75767;BME280;64378;55.596;13.014;2023-05-10T02:16:24;101365.25;;;20.68;34.67
75767;BME280;64378;55.596;13.014;2023-05-10T02:18:51;101360.88;;;20.67;34.55
75767;BME280;64378;55.596;13.014;2023-05-10T02:21:17;101354.56;;;20.66;34.64
75767;BME280;64378;55.596;13.014;2023-05-10T02:23:44;101354.56;;;20.66;34.97
75767;BME280;64378;55.596;13.014;2023-05-10T02:26:10;101357.03;;;20.68;34.47
75767;BME280;64378;55.596;13.014;2023-05-10T02:28:36;101350.75;;;20.67;34.75
75767;BME280;64378;55.596;13.014;2023-05-10T02:31:02;101346.34;;;20.66;34.45
75767;BME280;64378;55.596;13.014;2023-05-10T02:33:28;101347.69;;;20.64;34.85
75767;BME280;64378;55.596;13.014;2023-05-10T02:35:54;101341.34;;;20.63;34.69
75767;BME280;64378;55.596;13.014;2023-05-10T02:38:20;101343.03;;;20.64;34.52
75767;BME280;64378;55.596;13.014;2023-05-10T02:40:46;101341.09;;;20.65;34.77
75767;BME280;64378;55.596;13.014;2023-05-10T02:43:13;101348.50;;;20.64;34.58
75767;BME280;64378;55.596;13.014;2023-05-10T02:45:39;101343.03;;;20.64;34.86
75767;BME280;64378;55.596;13.014;2023-05-10T02:48:05;101346.34;;;20.66;34.42
75767;BME280;64378;55.596;13.014;2023-05-10T02:50:31;101350.75;;;20.67;34.92
75767;BME280;64378;55.596;13.014;2023-05-10T02:53:01;101342.50;;;20.67;34.73
75767;BME280;64378;55.596;13.014;2023-05-10T02:55:31;101343.59;;;20.66;34.50
75767;BME280;64378;55.596;13.014;2023-05-10T02:58:00;101343.84;;;20.65;34.27
75767;BME280;64378;55.596;13.014;2023-05-10T03:00:26;101350.16;;;20.65;34.74
75767;BME280;64378;55.596;13.014;2023-05-10T03:02:51;101353.97;;;20.64;34.22
75767;BME280;64378;55.596;13.014;2023-05-10T03:05:17;101352.31;;;20.63;34.66
75767;BME280;64378;55.596;13.014;2023-05-10T03:07:42;101351.75;;;20.61;34.52
75767;BME280;64378;55.596;13.014;2023-05-10T03:10:08;101344.38;;;20.62;34.99
75767;BME280;64378;55.596;13.014;2023-05-10T03:15:13;101347.91;;;20.62;34.39
75767;BME280;64378;55.596;13.014;2023-05-10T03:20:12;101339.97;;;20.61;34.59
75767;BME280;64378;55.596;13.014;2023-05-10T03:22:44;101343.78;;;20.60;34.42
75767;BME280;64378;55.596;13.014;2023-05-10T03:25:10;101340.78;;;20.61;34.88
75767;BME280;64378;55.596;13.014;2023-05-10T03:27:38;101342.72;;;20.61;34.41
75767;BME280;64378;55.596;13.014;2023-05-10T03:30:04;101345.44;;;20.61;34.60
75767;BME280;64378;55.596;13.014;2023-05-10T03:32:30;101348.19;;;20.61;34.43
75767;BME280;64378;55.596;13.014;2023-05-10T03:34:57;101347.34;;;20.60;34.62
75767;BME280;64378;55.596;13.014;2023-05-10T03:37:22;101341.28;;;20.58;34.43
75767;BME280;64378;55.596;13.014;2023-05-10T03:39:47;101344.28;;;20.57;34.38
75767;BME280;64378;55.596;13.014;2023-05-10T03:42:13;101347.63;;;20.59;35.00
75767;BME280;64378;55.596;13.014;2023-05-10T03:44:38;101339.38;;;20.59;34.46
75767;BME280;64378;55.596;13.014;2023-05-10T03:47:04;101346.75;;;20.58;34.48
75767;BME280;64378;55.596;13.014;2023-05-10T03:49:29;101345.94;;;20.58;34.34
75767;BME280;64378;55.596;13.014;2023-05-10T03:51:54;101340.19;;;20.59;34.82
75767;BME280;64378;55.596;13.014;2023-05-10T03:54:19;101336.66;;;20.59;34.61
75767;BME280;64378;55.596;13.014;2023-05-10T03:56:45;101346.03;;;20.63;35.14
75767;BME280;64378;55.596;13.014;2023-05-10T03:59:12;101340.84;;;20.66;34.45
75767;BME280;64378;55.596;13.014;2023-05-10T04:01:38;101332.34;;;20.68;34.42
75767;BME280;64378;55.596;13.014;2023-05-10T04:04:03;101339.00;;;20.72;34.67
75767;BME280;64378;55.596;13.014;2023-05-10T04:06:28;101342.09;;;20.75;34.37
75767;BME280;64378;55.596;13.014;2023-05-10T04:08:53;101335.25;;;20.77;34.46
75767;BME280;64378;55.596;13.014;2023-05-10T04:11:20;101329.28;;;20.80;34.39
75767;BME280;64378;55.596;13.014;2023-05-10T04:13:46;101339.75;;;20.83;34.42
75767;BME280;64378;55.596;13.014;2023-05-10T04:16:12;101338.41;;;20.86;34.34
75767;BME280;64378;55.596;13.014;2023-05-10T04:18:37;101337.09;;;20.88;34.02
75767;BME280;64378;55.596;13.014;2023-05-10T04:21:02;101337.38;;;20.92;34.39
75767;BME280;64378;55.596;13.014;2023-05-10T04:23:28;101327.00;;;20.94;34.28
75767;BME280;64378;55.596;13.014;2023-05-10T04:26:01;101337.69;;;20.95;35.02
75767;BME280;64378;55.596;13.014;2023-05-10T04:28:26;101341.59;;;20.99;34.97
75767;BME280;64378;55.596;13.014;2023-05-10T04:30:52;101343.00;;;21.02;34.74
75767;BME280;64378;55.596;13.014;2023-05-10T04:33:17;101344.41;;;21.04;34.29
75767;BME280;64378;55.596;13.014;2023-05-10T04:35:43;101338.41;;;21.07;35.10
75767;BME280;64378;55.596;13.014;2023-05-10T04:38:09;101337.91;;;21.10;34.89
75767;BME280;64378;55.596;13.014;2023-05-10T04:40:34;101341.47;;;21.11;34.87
75767;BME280;64378;55.596;13.014;2023-05-10T04:43:00;101329.41;;;21.12;34.77
75767;BME280;64378;55.596;13.014;2023-05-10T04:45:25;101338.19;;;21.14;35.04
75767;BME280;64378;55.596;13.014;2023-05-10T04:47:51;101344.28;;;21.16;34.64
75767;BME280;64378;55.596;13.014;2023-05-10T04:50:16;101344.00;;;21.17;34.59
75767;BME280;64378;55.596;13.014;2023-05-10T04:52:42;101342.41;;;21.21;34.40
75767;BME280;64378;55.596;13.014;2023-05-10T04:55:07;101344.63;;;21.24;34.65
75767;BME280;64378;55.596;13.014;2023-05-10T04:57:34;101339.72;;;21.26;34.66
75767;BME280;64378;55.596;13.014;2023-05-10T04:59:59;101343.03;;;21.28;34.54
75767;BME280;64378;55.596;13.014;2023-05-10T05:02:25;101340.03;;;21.30;34.55
75767;BME280;64378;55.596;13.014;2023-05-10T05:04:50;101332.94;;;21.34;34.80
75767;BME280;64378;55.596;13.014;2023-05-10T05:07:15;101339.84;;;21.36;35.05
75767;BME280;64378;55.596;13.014;2023-05-10T05:09:41;101339.34;;;21.39;34.48
75767;BME280;64378;55.596;13.014;2023-05-10T05:12:06;101335.22;;;21.42;34.82
75767;BME280;64378;55.596;13.014;2023-05-10T05:14:31;101342.09;;;21.44;34.96
75767;BME280;64378;55.596;13.014;2023-05-10T05:16:56;101336.38;;;21.46;34.88
75767;BME280;64378;55.596;13.014;2023-05-10T05:19:22;101342.16;;;21.49;35.05
75767;BME280;64378;55.596;13.014;2023-05-10T05:21:47;101343.56;;;21.52;34.95
75767;BME280;64378;55.596;13.014;2023-05-10T05:24:13;101344.13;;;21.54;34.76
75767;BME280;64378;55.596;13.014;2023-05-10T05:26:38;101341.94;;;21.56;35.12
75767;BME280;64378;55.596;13.014;2023-05-10T05:29:03;101346.94;;;21.59;35.27
75767;BME280;64378;55.596;13.014;2023-05-10T05:31:29;101331.91;;;21.61;35.17
75767;BME280;64378;55.596;13.014;2023-05-10T05:33:54;101350.03;;;21.62;34.81
75767;BME280;64378;55.596;13.014;2023-05-10T05:36:20;101357.47;;;21.67;34.79
75767;BME280;64378;55.596;13.014;2023-05-10T05:38:45;101347.88;;;21.69;34.91
75767;BME280;64378;55.596;13.014;2023-05-10T05:41:10;101339.41;;;21.71;34.83
75767;BME280;64378;55.596;13.014;2023-05-10T05:43:35;101354.50;;;21.73;34.83
75767;BME280;64378;55.596;13.014;2023-05-10T05:46:01;101352.34;;;21.75;34.80
75767;BME280;64378;55.596;13.014;2023-05-10T05:48:26;101351.00;;;21.78;35.21
75767;BME280;64378;55.596;13.014;2023-05-10T05:50:54;101346.31;;;21.78;35.15
75767;BME280;64378;55.596;13.014;2023-05-10T05:53:20;101354.06;;;21.81;35.21
75767;BME280;64378;55.596;13.014;2023-05-10T05:55:55;101358.47;;;21.82;34.96
75767;BME280;64378;55.596;13.014;2023-05-10T05:58:24;101346.56;;;21.72;33.92
75767;BME280;64378;55.596;13.014;2023-05-10T06:00:49;101354.28;;;21.75;34.92
75767;BME280;64378;55.596;13.014;2023-05-10T06:03:15;101358.69;;;21.81;35.10
75767;BME280;64378;55.596;13.014;2023-05-10T06:05:40;101345.00;;;21.86;34.73
75767;BME280;64378;55.596;13.014;2023-05-10T06:08:05;101353.88;;;21.92;34.53
75767;BME280;64378;55.596;13.014;2023-05-10T06:10:31;101361.31;;;21.97;34.34
75767;BME280;64378;55.596;13.014;2023-05-10T06:12:56;101350.66;;;22.00;34.64
75767;BME280;64378;55.596;13.014;2023-05-10T06:15:21;101360.28;;;22.03;34.24
75767;BME280;64378;55.596;13.014;2023-05-10T06:17:46;101355.34;;;22.05;34.52
75767;BME280;64378;55.596;13.014;2023-05-10T06:20:14;101352.09;;;22.08;34.28
75767;BME280;64378;55.596;13.014;2023-05-10T06:22:39;101357.06;;;22.11;34.15
75767;BME280;64378;55.596;13.014;2023-05-10T06:25:04;101354.03;;;22.12;34.12
75767;BME280;64378;55.596;13.014;2023-05-10T06:27:30;101356.53;;;22.14;34.07
75767;BME280;64378;55.596;13.014;2023-05-10T06:29:55;101363.41;;;22.16;34.38
75767;BME280;64378;55.596;13.014;2023-05-10T06:32:20;101364.81;;;22.19;34.22
75767;BME280;64378;55.596;13.014;2023-05-10T06:34:46;101358.22;;;22.20;33.75
75767;BME280;64378;55.596;13.014;2023-05-10T06:37:11;101351.38;;;22.22;33.60
75767;BME280;64378;55.596;13.014;2023-05-10T06:39:36;101360.75;;;22.26;33.88
75767;BME280;64378;55.596;13.014;2023-05-10T06:42:01;101348.41;;;22.29;33.96
75767;BME280;64378;55.596;13.014;2023-05-10T06:44:28;101344.28;;;22.31;33.75
75767;BME280;64378;55.596;13.014;2023-05-10T06:46:53;101351.22;;;22.34;33.61
75767;BME280;64378;55.596;13.014;2023-05-10T06:49:20;101358.09;;;22.36;33.49
75767;BME280;64378;55.596;13.014;2023-05-10T06:51:46;101361.69;;;22.37;33.48
75767;BME280;64378;55.596;13.014;2023-05-10T06:54:11;101353.16;;;22.38;33.78
75767;BME280;64378;55.596;13.014;2023-05-10T06:56:36;101363.91;;;22.40;33.60
75767;BME280;64378;55.596;13.014;2023-05-10T06:59:01;101358.41;;;22.40;33.49
75767;BME280;64378;55.596;13.014;2023-05-10T07:01:27;101361.16;;;22.40;33.65
75767;BME280;64378;55.596;13.014;2023-05-10T07:03:53;101360.88;;;22.41;33.42
75767;BME280;64378;55.596;13.014;2023-05-10T07:06:18;101361.72;;;22.42;33.63
75767;BME280;64378;55.596;13.014;2023-05-10T07:08:43;101359.50;;;22.44;33.70
75767;BME280;64378;55.596;13.014;2023-05-10T07:11:08;101354.00;;;22.44;33.34
75767;BME280;64378;55.596;13.014;2023-05-10T07:13:33;101356.53;;;22.45;33.58
75767;BME280;64378;55.596;13.014;2023-05-10T07:15:59;101351.84;;;22.46;33.17
75767;BME280;64378;55.596;13.014;2023-05-10T07:18:25;101358.75;;;22.48;33.44
75767;BME280;64378;55.596;13.014;2023-05-10T07:20:50;101349.66;;;22.48;33.41
75767;BME280;64378;55.596;13.014;2023-05-10T07:23:16;101345.00;;;22.48;33.23
75767;BME280;64378;55.596;13.014;2023-05-10T07:25:44;101344.72;;;22.50;33.38
75767;BME280;64378;55.596;13.014;2023-05-10T07:28:09;101346.38;;;22.51;33.58
75767;BME280;64378;55.596;13.014;2023-05-10T07:30:35;101349.13;;;22.51;33.37
75767;BME280;64378;55.596;13.014;2023-05-10T07:33:00;101346.38;;;22.51;33.34
75767;BME280;64378;55.596;13.014;2023-05-10T07:35:26;101348.88;;;22.52;33.14
75767;BME280;64378;55.596;13.014;2023-05-10T07:37:51;101346.94;;;22.53;34.00
75767;BME280;64378;55.596;13.014;2023-05-10T07:40:16;101347.78;;;22.53;33.19
75767;BME280;64378;55.596;13.014;2023-05-10T07:42:41;101356.84;;;22.54;33.35
75767;BME280;64378;55.596;13.014;2023-05-10T07:45:07;101352.19;;;22.54;33.27
75767;BME280;64378;55.596;13.014;2023-05-10T07:47:33;101353.00;;;22.55;33.34
75767;BME280;64378;55.596;13.014;2023-05-10T07:49:58;101353.00;;;22.55;33.34
75767;BME280;64378;55.596;13.014;2023-05-10T07:52:23;101353.84;;;22.55;33.32
75767;BME280;64378;55.596;13.014;2023-05-10T07:54:48;101351.91;;;22.56;34.16
75767;BME280;64378;55.596;13.014;2023-05-10T07:57:14;101355.75;;;22.55;33.62
75767;BME280;64378;55.596;13.014;2023-05-10T07:59:42;101356.59;;;22.55;33.55
75767;BME280;64378;55.596;13.014;2023-05-10T08:02:07;101353.84;;;22.55;33.45
75767;BME280;64378;55.596;13.014;2023-05-10T08:04:33;101350.81;;;22.57;33.45
75767;BME280;64378;55.596;13.014;2023-05-10T08:06:58;101356.31;;;22.57;33.26
75767;BME280;64378;55.596;13.014;2023-05-10T08:09:23;101357.13;;;22.57;33.11
75767;BME280;64378;55.596;13.014;2023-05-10T08:11:49;101352.47;;;22.58;33.39
75767;BME280;64378;55.596;13.014;2023-05-10T08:14:14;101362.38;;;22.59;33.75
75767;BME280;64378;55.596;13.014;2023-05-10T08:16:39;101360.72;;;22.58;34.31
75767;BME280;64378;55.596;13.014;2023-05-10T08:19:05;101359.63;;;22.59;33.30
75767;BME280;64378;55.596;13.014;2023-05-10T08:21:30;101359.63;;;22.59;33.29
75767;BME280;64378;55.596;13.014;2023-05-10T08:23:56;101356.88;;;22.59;33.20
75767;BME280;64378;55.596;13.014;2023-05-10T08:26:22;101365.94;;;22.59;32.98
75767;BME280;64378;55.596;13.014;2023-05-10T08:28:47;101360.44;;;22.59;33.12
75767;BME280;64378;55.596;13.014;2023-05-10T08:31:13;101359.34;;;22.60;33.62
75767;BME280;64378;55.596;13.014;2023-05-10T08:33:38;101353.84;;;22.60;33.17
75767;BME280;64378;55.596;13.014;2023-05-10T08:36:03;101354.69;;;22.61;33.09
75767;BME280;64378;55.596;13.014;2023-05-10T08:38:28;101359.09;;;22.62;33.24
75767;BME280;64378;55.596;13.014;2023-05-10T08:40:54;101350.00;;;22.61;32.94
75767;BME280;64378;55.596;13.014;2023-05-10T08:43:24;101351.66;;;22.62;32.84
75767;BME280;64378;55.596;13.014;2023-05-10T08:45:51;101361.00;;;22.61;33.20
75767;BME280;64378;55.596;13.014;2023-05-10T08:48:18;101359.91;;;22.62;33.39
75767;BME280;64378;55.596;13.014;2023-05-10T08:50:44;101357.44;;;22.61;33.49
75767;BME280;64378;55.596;13.014;2023-05-10T08:53:11;101363.75;;;22.61;33.06
75767;BME280;64378;55.596;13.014;2023-05-10T08:55:37;101360.19;;;22.61;32.90
75767;BME280;64378;55.596;13.014;2023-05-10T08:58:04;101362.94;;;22.61;33.10
75767;BME280;64378;55.596;13.014;2023-05-10T09:00:29;101361.00;;;22.61;32.98
75767;BME280;64378;55.596;13.014;2023-05-10T09:02:54;101371.19;;;22.61;32.80
75767;BME280;64378;55.596;13.014;2023-05-10T09:05:20;101369.25;;;22.61;33.22
75767;BME280;64378;55.596;13.014;2023-05-10T09:07:45;101361.00;;;22.61;32.81
75767;BME280;64378;55.596;13.014;2023-05-10T09:10:11;101365.69;;;22.61;33.60
75767;BME280;64378;55.596;13.014;2023-05-10T09:12:36;101357.44;;;22.61;33.19
75767;BME280;64378;55.596;13.014;2023-05-10T09:15:02;101364.84;;;22.60;33.20
75767;BME280;64378;55.596;13.014;2023-05-10T09:17:27;101359.34;;;22.60;33.00
75767;BME280;64378;55.596;13.014;2023-05-10T09:19:57;101360.44;;;22.59;32.81
75767;BME280;64378;55.596;13.014;2023-05-10T09:22:23;101347.53;;;22.60;33.08
75767;BME280;64378;55.596;13.014;2023-05-10T09:24:48;101350.53;;;22.58;33.07
75767;BME280;64378;55.596;13.014;2023-05-10T09:27:27;101357.69;;;22.59;33.12
75767;BME280;64378;55.596;13.014;2023-05-10T09:29:53;101353.28;;;22.58;32.86
75767;BME280;64378;55.596;13.014;2023-05-10T09:32:19;101349.72;;;22.58;32.87
75767;BME280;64378;55.596;13.014;2023-05-10T09:34:45;101348.88;;;22.57;32.93
75767;BME280;64378;55.596;13.014;2023-05-10T09:37:10;101345.31;;;22.57;33.11
75767;BME280;64378;55.596;13.014;2023-05-10T09:39:37;101343.66;;;22.56;33.02
75767;BME280;64378;55.596;13.014;2023-05-10T09:42:06;101343.09;;;22.54;33.27
75767;BME280;64378;55.596;13.014;2023-05-10T09:44:32;101340.34;;;22.54;32.83
75767;BME280;64378;55.596;13.014;2023-05-10T09:46:58;101341.44;;;22.53;32.95
75767;BME280;64378;55.596;13.014;2023-05-10T09:49:23;101345.28;;;22.52;32.86
75767;BME280;64378;55.596;13.014;2023-05-10T09:52:01;101348.03;;;22.52;32.88
75767;BME280;64378;55.596;13.014;2023-05-10T09:54:27;101342.81;;;22.50;32.91
75767;BME280;64378;55.596;13.014;2023-05-10T09:56:52;101351.06;;;22.50;32.90
75767;BME280;64378;55.596;13.014;2023-05-10T09:59:17;101354.91;;;22.49;32.84
75767;BME280;64378;55.596;13.014;2023-05-10T10:01:44;101347.75;;;22.48;32.75
75767;BME280;64378;55.596;13.014;2023-05-10T10:04:14;101353.50;;;22.47;32.85
75767;BME280;64378;55.596;13.014;2023-05-10T10:06:39;101353.50;;;22.47;32.65
75767;BME280;64378;55.596;13.014;2023-05-10T10:09:05;101355.44;;;22.46;32.93
75767;BME280;64378;55.596;13.014;2023-05-10T10:11:31;101345.53;;;22.45;32.74
75767;BME280;64378;55.596;13.014;2023-05-10T10:13:56;101347.44;;;22.45;33.23
75767;BME280;64378;55.596;13.014;2023-05-10T10:16:21;101352.09;;;22.44;33.41
75767;BME280;64378;55.596;13.014;2023-05-10T10:18:47;101355.94;;;22.43;33.24
75767;BME280;64378;55.596;13.014;2023-05-10T10:21:13;101355.38;;;22.41;33.38
75767;BME280;64378;55.596;13.014;2023-05-10T10:23:38;101343.56;;;22.41;32.95
75767;BME280;64378;55.596;13.014;2023-05-10T10:26:04;101346.31;;;22.41;33.04
75767;BME280;64378;55.596;13.014;2023-05-10T10:33:51;101350.72;;;22.42;32.91
75767;BME280;64378;55.596;13.014;2023-05-10T10:36:19;101344.38;;;22.41;32.96
75767;BME280;64378;55.596;13.014;2023-05-10T10:41:32;101333.38;;;22.41;32.97
75767;BME280;64378;55.596;13.014;2023-05-10T10:49:22;101338.06;;;22.41;33.11
75767;BME280;64378;55.596;13.014;2023-05-10T10:54:32;101339.16;;;22.40;33.26
75767;BME280;64378;55.596;13.014;2023-05-10T10:57:10;101337.22;;;22.40;32.91
75767;BME280;64378;55.596;13.014;2023-05-10T10:59:35;101337.22;;;22.40;33.01
75767;BME280;64378;55.596;13.014;2023-05-10T11:02:01;101328.72;;;22.42;33.11
75767;BME280;64378;55.596;13.014;2023-05-10T11:04:27;101323.47;;;22.40;33.09
75767;BME280;64378;55.596;13.014;2023-05-10T11:06:52;101328.16;;;22.40;33.05
75767;BME280;64378;55.596;13.014;2023-05-10T11:09:41;101329.25;;;22.39;33.40
75767;BME280;64378;55.596;13.014;2023-05-10T11:12:08;101327.59;;;22.38;33.49
75767;BME280;64378;55.596;13.014;2023-05-10T11:14:33;101324.00;;;22.37;32.99
75767;BME280;64378;55.596;13.014;2023-05-10T11:16:59;101329.25;;;22.39;33.18
75767;BME280;64378;55.596;13.014;2023-05-10T11:19:27;101329.50;;;22.37;33.23
75767;BME280;64378;55.596;13.014;2023-05-10T11:24:30;101322.09;;;22.38;33.19
75767;BME280;64378;55.596;13.014;2023-05-10T11:26:56;101321.25;;;22.37;32.93
75767;BME280;64378;55.596;13.014;2023-05-10T11:29:21;101323.19;;;22.37;33.05
75767;BME280;64378;55.596;13.014;2023-05-10T11:31:47;101327.59;;;22.38;32.98
75767;BME280;64378;55.596;13.014;2023-05-10T11:34:22;101325.94;;;22.37;32.93
75767;BME280;64378;55.596;13.014;2023-05-10T11:36:50;101341.34;;;22.38;33.03
75767;BME280;64378;55.596;13.014;2023-05-10T11:39:15;101334.19;;;22.37;32.97
75767;BME280;64378;55.596;13.014;2023-05-10T11:41:41;101322.34;;;22.36;33.02
75767;BME280;64378;55.596;13.014;2023-05-10T11:44:06;101333.34;;;22.36;32.97
75767;BME280;64378;55.596;13.014;2023-05-10T11:46:34;101328.69;;;22.37;32.96
75767;BME280;64378;55.596;13.014;2023-05-10T11:48:59;101331.44;;;22.37;32.89
75767;BME280;64378;55.596;13.014;2023-05-10T11:51:32;101328.69;;;22.37;32.87
75767;BME280;64378;55.596;13.014;2023-05-10T11:53:58;101344.34;;;22.36;32.81
75767;BME280;64378;55.596;13.014;2023-05-10T11:56:23;101331.69;;;22.35;32.91
75767;BME280;64378;55.596;13.014;2023-05-10T11:58:53;101340.78;;;22.36;32.78
75767;BME280;64378;55.596;13.014;2023-05-10T12:01:18;101345.44;;;22.35;32.99
75767;BME280;64378;55.596;13.014;2023-05-10T12:03:44;101334.44;;;22.35;32.86
75767;BME280;64378;55.596;13.014;2023-05-10T12:06:09;101339.94;;;22.35;32.73
75767;BME280;64378;55.596;13.014;2023-05-10T12:08:35;101336.38;;;22.35;32.70
75767;BME280;64378;55.596;13.014;2023-05-10T12:11:04;101339.13;;;22.35;32.85
75767;BME280;64378;55.596;13.014;2023-05-10T12:13:30;101339.34;;;22.33;32.99
75767;BME280;64378;55.596;13.014;2023-05-10T12:15:58;101347.38;;;22.35;32.77
75767;BME280;64378;55.596;13.014;2023-05-10T12:18:24;101346.78;;;22.33;32.79
75767;BME280;64378;55.596;13.014;2023-05-10T12:20:52;101340.22;;;22.34;32.80
75767;BME280;64378;55.596;13.014;2023-05-10T12:23:18;101338.53;;;22.33;32.52
75767;BME280;64378;55.596;13.014;2023-05-10T12:25:44;101332.19;;;22.32;32.65
75767;BME280;64378;55.596;13.014;2023-05-10T12:28:10;101335.78;;;22.33;32.72
75767;BME280;64378;55.596;13.014;2023-05-10T12:30:35;101340.22;;;22.34;32.70
75767;BME280;64378;55.596;13.014;2023-05-10T12:33:11;101334.94;;;22.32;32.67
75767;BME280;64378;55.596;13.014;2023-05-10T12:35:47;101330.53;;;22.31;32.66
75767;BME280;64378;55.596;13.014;2023-05-10T12:40:57;101333.28;;;22.31;32.70
75767;BME280;64378;55.596;13.014;2023-05-10T12:43:23;101346.78;;;22.33;32.54
75767;BME280;64378;55.596;13.014;2023-05-10T12:45:48;101337.97;;;22.31;32.61
75767;BME280;64378;55.596;13.014;2023-05-10T12:48:14;101330.53;;;22.31;32.63
75767;BME280;64378;55.596;13.014;2023-05-10T12:50:39;101339.06;;;22.30;32.73
75767;BME280;64378;55.596;13.014;2023-05-10T12:53:04;101329.72;;;22.31;32.64
75767;BME280;64378;55.596;13.014;2023-05-10T12:55:30;101343.47;;;22.31;32.37
75767;BME280;64378;55.596;13.014;2023-05-10T12:57:55;101332.75;;;22.29;32.57
75767;BME280;64378;55.596;13.014;2023-05-10T13:00:20;101339.88;;;22.30;32.42
75767;BME280;64378;55.596;13.014;2023-05-10T13:02:45;101341.00;;;22.29;32.75
75767;BME280;64378;55.596;13.014;2023-05-10T13:05:11;101341.00;;;22.29;32.39
75767;BME280;64378;55.596;13.014;2023-05-10T13:07:38;101327.25;;;22.29;32.57
75767;BME280;64378;55.596;13.014;2023-05-10T13:10:03;101330.81;;;22.30;32.76